Pagrindinis puslapis
METAR-TAF:

METAR-TAF

Oro uostai :

Rørvik, Norvegija

platuma: 64-50N, ilguma: 011-09E, Aukštis: 4 m

Dabartinis oras

Ataskaita buvo paskelbta 35 minutes, ne 13:50 UTC
Vėjas 12 kt iš Šiaurės
Temperatūra 6°C
Drėgmė 49%
Slėgis 1022 hPa
Matomumas 10 km arba daugiau

METAR: ENRM 201350Z AUTO 35012KT 9999 NCD 06/M04 Q1022

Laikas: 16:25 (14:25 UTC)

Prognozė

Ataskaita buvo paskelbta 17 valandos ir 37 minutes, ne 20:48 UTC
Prognozė galioja nuo 19 metu 20 UTC su 19 metu 22 UTC
Vėjas 6 kt iš Rytų
Matomumas 10 km arba daugiau
nėra debesų žemiau 1500 m ir nėra kamuolinių lietaus debesų

TAF: ENRM 192048Z 1920/1922 09006KT CAVOK

Orai ataskaitas ir orų prognozės (METAR, TAF).

turimą stotys yra geltonos ir raudonos taškus žemėlapyje.

Perkelti pele per norėdami pamatyti stoties vardą.

Tada spustelėkite, norėdami matyti oro stebėjimo ir prognozės.

Norėdami pakeisti žemėlapį: spustelėkite ant žalios mygtukų su juodo kryžiaus žemyn,; žalią mygtuką su brūkšneliu, jei norite nutolinti; arba žalių rodyklių gretimoms žemėlapius.


METAR-TAF: